Time;durP1;ratioP1;P1;durP2;ratioP2;P2;SDS_P1;SDS_P2;PMS_P1;PMS_P2;Temp;Humidity;BMP_temperature;BMP_pressure;BME280_temperature;BME280_humidity;BME280_pressure;Samples;Min_cycle;Max_cycle;Signal;HPM_P1;HPM_P2
2022/10/09 00:02:21;;;;;;;2.80;2.33;;;;;;;9.75;nan;100188.84;4993945;28;20285;-83
2022/10/09 00:04:46;;;;;;;4.87;3.20;;;;;;;9.71;nan;100194.31;4994700;28;20974;-83
2022/10/09 00:07:12;;;;;;;2.20;1.77;;;;;;;9.59;nan;100187.09;4994784;28;20410;-82
2022/10/09 00:09:37;;;;;;;3.83;2.00;;;;;;;9.45;nan;100188.63;5005595;28;20302;-82
2022/10/09 00:12:02;;;;;;;1.83;1.60;;;;;;;9.35;nan;100183.91;4998612;28;20199;-83
2022/10/09 00:14:28;;;;;;;1.70;1.50;;;;;;;9.28;nan;100189.44;5002493;28;20200;-82
2022/10/09 00:16:53;;;;;;;2.13;1.20;;;;;;;9.26;nan;100186.06;4999819;28;20271;-82
2022/10/09 00:19:19;;;;;;;2.10;1.67;;;;;;;9.22;nan;100183.66;4996785;28;20211;-82
2022/10/09 00:21:44;;;;;;;4.90;1.60;;;;;;;9.18;nan;100190.81;4990455;28;20223;-82
2022/10/09 00:24:10;;;;;;;7.70;2.30;;;;;;;9.16;nan;100189.19;4994318;28;20228;-83
2022/10/09 00:26:35;;;;;;;7.13;5.43;;;;;;;9.15;nan;100188.31;4990851;28;20208;-82
2022/10/09 00:29:01;;;;;;;2.50;2.17;;;;;;;9.14;nan;100185.81;4990445;28;20270;-82
2022/10/09 00:31:27;;;;;;;2.90;2.55;;;;;;;9.12;nan;100177.16;5004225;28;20192;-81
2022/10/09 00:33:52;;;;;;;1.90;1.80;;;;;;;9.11;nan;100183.34;5004255;28;20198;-81
2022/10/09 00:36:21;;;;;;;2.20;2.00;;;;;;;9.08;nan;100179.94;5002870;28;20223;-81
2022/10/09 00:38:48;;;;;;;2.08;1.42;;;;;;;9.06;nan;100181.75;5001373;28;20214;-81
2022/10/09 00:41:16;;;;;;;2.80;1.60;;;;;;;9.06;nan;100188.78;4990448;28;20420;-81
2022/10/09 00:43:52;;;;;;;2.28;2.08;;;;;;;9.05;nan;100177.47;4991179;28;20277;-81
2022/10/09 00:46:39;;;;;;;1.92;1.77;;;;;;;9.04;nan;100174.91;4987887;28;20725;-81
2022/10/09 00:49:19;;;;;;;2.03;1.77;;;;;;;8.98;nan;100176.03;4990043;28;20333;-81
2022/10/09 00:51:48;;;;;;;5.40;2.15;;;;;;;8.95;nan;100176.19;4991385;28;20242;-81
2022/10/09 00:54:16;;;;;;;2.22;1.70;;;;;;;8.96;nan;100175.25;4989279;28;20638;-81
2022/10/09 00:56:42;;;;;;;1.98;1.88;;;;;;;8.99;nan;100175.16;4991659;28;20243;-81
2022/10/09 00:59:09;;;;;;;5.70;2.23;;;;;;;9.02;nan;100159.28;4985041;28;20204;-81
2022/10/09 01:01:34;;;;;;;6.10;2.65;;;;;;;9.05;nan;100158.28;4989579;28;21083;-81
2022/10/09 01:03:59;;;;;;;2.13;1.83;;;;;;;9.06;nan;100163.41;4985250;28;20657;-81
2022/10/09 01:06:39;;;;;;;3.03;2.73;;;;;;;9.04;nan;100169.66;4986104;28;20863;-81
2022/10/09 01:09:07;;;;;;;2.72;2.40;;;;;;;9.00;nan;100155.88;4986668;28;20240;-81
2022/10/09 01:11:54;;;;;;;5.72;2.70;;;;;;;8.96;nan;100156.91;4988752;28;20303;-81
2022/10/09 01:14:38;;;;;;;4.30;2.20;;;;;;;8.94;nan;100150.94;4991091;28;20198;-82
2022/10/09 01:17:09;;;;;;;3.85;2.30;;;;;;;8.91;nan;100152.81;4990742;28;20526;-81
2022/10/09 01:19:49;;;;;;;4.50;2.60;;;;;;;8.91;nan;100153.69;4987398;28;20245;-81
2022/10/09 01:22:42;;;;;;;5.25;2.35;;;;;;;8.93;nan;100149.22;4987629;28;20226;-81
2022/10/09 01:25:18;;;;;;;2.95;2.70;;;;;;;8.94;nan;100134.34;4986400;28;20187;-81
2022/10/09 01:27:44;;;;;;;7.25;3.35;;;;;;;8.98;nan;100141.13;4988441;28;20755;-81
2022/10/09 01:30:12;;;;;;;2.73;2.37;;;;;;;9.04;nan;100135.59;4989088;28;20240;-81
2022/10/09 01:32:45;;;;;;;6.28;2.78;;;;;;;9.10;nan;100132.69;4988856;28;20184;-81
2022/10/09 01:35:12;;;;;;;5.03;3.42;;;;;;;9.17;nan;100133.22;4988797;28;20211;-81
2022/10/09 01:37:42;;;;;;;4.55;3.15;;;;;;;9.20;nan;100122.59;4987333;28;20620;-81
2022/10/09 01:40:09;;;;;;;3.72;2.80;;;;;;;9.23;nan;100118.03;4986690;28;20203;-81
2022/10/09 01:42:34;;;;;;;3.85;3.38;;;;;;;9.25;nan;100124.06;4988673;28;20188;-81
2022/10/09 01:45:00;;;;;;;4.23;3.83;;;;;;;9.28;nan;100123.91;4991047;28;20238;-81
2022/10/09 01:47:25;;;;;;;5.10;3.10;;;;;;;9.31;nan;100115.88;4991770;28;20212;-81
2022/10/09 01:50:13;;;;;;;4.70;3.83;;;;;;;9.34;nan;100120.13;4991703;28;20872;-81
2022/10/09 01:53:05;;;;;;;4.75;3.30;;;;;;;9.33;nan;100113.19;4995053;28;20655;-81
2022/10/09 01:56:01;;;;;;;3.65;3.35;;;;;;;9.34;nan;100108.78;4990129;28;20550;-81
2022/10/09 01:58:39;;;;;;;8.57;4.00;;;;;;;9.34;nan;100104.38;4992862;28;20695;-81
2022/10/09 02:01:10;;;;;;;6.65;3.67;;;;;;;9.35;nan;100103.47;4988296;28;20263;-81
2022/10/09 02:03:39;;;;;;;3.72;3.25;;;;;;;9.34;nan;100090.44;4997452;28;20219;-81
2022/10/09 02:06:07;;;;;;;5.13;4.15;;;;;;;9.38;nan;100094.63;4989802;28;20238;-81
2022/10/09 02:08:35;;;;;;;4.28;3.20;;;;;;;9.39;nan;100084.03;4990803;28;20286;-81
2022/10/09 02:11:02;;;;;;;4.43;3.42;;;;;;;9.40;nan;100085.75;4989868;28;20553;-81
2022/10/09 02:13:29;;;;;;;5.38;3.33;;;;;;;9.39;nan;100086.66;4990280;28;20184;-81
2022/10/09 02:16:22;;;;;;;12.82;4.30;;;;;;;9.40;nan;100084.91;4996046;28;20310;-81
2022/10/09 02:19:00;;;;;;;3.90;3.50;;;;;;;9.37;nan;100083.28;4990948;28;20301;-81
2022/10/09 02:21:36;;;;;;;5.22;2.67;;;;;;;9.34;nan;100082.56;4990535;28;20202;-81
2022/10/09 02:24:05;;;;;;;5.32;3.30;;;;;;;9.31;nan;100081.78;4990032;28;20432;-81
2022/10/09 02:26:31;;;;;;;3.03;2.72;;;;;;;9.31;nan;100073.94;4993401;28;20183;-81
2022/10/09 02:28:57;;;;;;;5.78;3.95;;;;;;;9.32;nan;100072.19;4989980;28;20227;-81
2022/10/09 02:31:26;;;;;;;7.03;4.30;;;;;;;9.30;nan;100074.88;4995152;28;20202;-82
2022/10/09 02:34:09;;;;;;;4.65;3.22;;;;;;;9.27;nan;100068.94;4992006;28;20180;-81
2022/10/09 02:36:35;;;;;;;6.60;4.07;;;;;;;9.24;nan;100072.56;4988548;28;20274;-81
2022/10/09 02:39:02;;;;;;;5.65;3.55;;;;;;;9.24;nan;100075.19;4992594;28;20208;-81
2022/10/09 02:41:28;;;;;;;6.30;4.38;;;;;;;9.26;nan;100072.47;4992406;28;20198;-81
2022/10/09 02:43:53;;;;;;;4.40;3.50;;;;;;;9.25;nan;100073.41;4990645;28;20208;-81
2022/10/09 02:46:19;;;;;;;4.83;3.40;;;;;;;9.25;nan;100068.16;4990181;28;20278;-82
2022/10/09 02:48:44;;;;;;;5.37;3.90;;;;;;;9.26;nan;100067.22;4990283;28;20223;-81
2022/10/09 02:51:09;;;;;;;6.60;3.53;;;;;;;9.27;nan;100069.78;4988669;28;20224;-81
2022/10/09 02:53:35;;;;;;;5.83;4.23;;;;;;;9.27;nan;100064.53;4990926;28;20196;-81
2022/10/09 02:56:01;;;;;;;5.20;3.13;;;;;;;9.24;nan;100063.84;4987853;28;20187;-82
2022/10/09 02:58:29;;;;;;;5.67;4.67;;;;;;;9.21;nan;100069.25;4987461;28;20239;-81
2022/10/09 03:00:54;;;;;;;4.15;3.60;;;;;;;9.17;nan;100068.53;4988356;28;20210;-81
2022/10/09 03:03:20;;;;;;;7.73;4.60;;;;;;;9.14;nan;100067.88;4988878;28;20226;-82
2022/10/09 03:05:46;;;;;;;5.70;4.83;;;;;;;9.12;nan;100059.22;4988735;28;20219;-81
2022/10/09 03:08:12;;;;;;;6.63;5.67;;;;;;;9.12;nan;100067.09;4989156;28;20471;-82
2022/10/09 03:10:39;;;;;;;5.45;4.05;;;;;;;9.11;nan;100057.53;4988203;28;20206;-81
2022/10/09 03:13:05;;;;;;;8.48;5.80;;;;;;;9.09;nan;100061.06;4987839;28;20262;-81
2022/10/09 03:15:35;;;;;;;5.88;4.80;;;;;;;9.08;nan;100064.63;4987298;28;20657;-81
2022/10/09 03:18:01;;;;;;;7.68;4.88;;;;;;;9.07;nan;100055.06;4988324;28;20183;-81
2022/10/09 03:20:28;;;;;;;7.43;5.43;;;;;;;9.09;nan;100053.19;4988787;28;20318;-82
2022/10/09 03:22:55;;;;;;;7.65;5.68;;;;;;;9.11;nan;100060.16;4987879;28;20701;-82
2022/10/09 03:25:20;;;;;;;9.75;5.25;;;;;;;9.11;nan;100060.16;4988332;28;20604;-82
2022/10/09 03:27:45;;;;;;;6.30;5.67;;;;;;;9.11;nan;100060.16;4987541;28;20966;-82
2022/10/09 03:30:11;;;;;;;6.53;5.03;;;;;;;9.12;nan;100062.69;4987935;28;20227;-82
2022/10/09 03:32:37;;;;;;;12.10;5.50;;;;;;;9.09;nan;100058.44;4987928;28;20400;-82
2022/10/09 03:35:02;;;;;;;10.80;6.60;;;;;;;9.09;nan;100063.69;4989593;28;20443;-81
2022/10/09 03:37:28;;;;;;;8.30;6.47;;;;;;;9.11;nan;100053.13;4989767;28;20227;-81
2022/10/09 03:39:54;;;;;;;6.50;5.43;;;;;;;9.12;nan;100052.19;5004576;28;20219;-82
2022/10/09 03:42:19;;;;;;;5.38;4.40;;;;;;;9.16;nan;100064.25;4992292;28;20258;-81
2022/10/09 03:44:45;;;;;;;9.50;7.40;;;;;;;9.22;nan;100063.09;4989830;28;20195;-82
2022/10/09 03:47:10;;;;;;;12.30;6.87;;;;;;;9.24;nan;100056.84;4989148;28;20207;-82
2022/10/09 03:49:35;;;;;;;10.87;7.13;;;;;;;9.28;nan;100060.13;4995375;28;20227;-82
2022/10/09 03:52:01;;;;;;;8.50;7.47;;;;;;;9.32;nan;100061.69;4991399;28;20562;-82
2022/10/09 03:54:26;;;;;;;11.63;8.47;;;;;;;9.34;nan;100059.81;4998952;28;20294;-82
2022/10/09 03:56:52;;;;;;;10.67;8.50;;;;;;;9.39;nan;100063.06;4998339;28;20210;-82
2022/10/09 03:59:17;;;;;;;14.80;9.20;;;;;;;9.41;nan;100055.97;4993615;28;20278;-82
2022/10/09 04:01:42;;;;;;;64.53;16.27;;;;;;;9.46;nan;100060.97;4987235;28;20190;-82
2022/10/09 04:04:08;;;;;;;12.20;9.93;;;;;;;9.49;nan;100059.03;4992045;28;20187;-82
2022/10/09 04:06:33;;;;;;;19.93;11.10;;;;;;;9.53;nan;100063.22;4997697;28;20200;-82
2022/10/09 04:09:00;;;;;;;14.47;8.63;;;;;;;9.54;nan;100061.44;4993086;28;20224;-81
2022/10/09 04:11:25;;;;;;;30.98;10.80;;;;;;;9.52;nan;100066.75;4985683;28;20249;-82
2022/10/09 04:13:50;;;;;;;12.47;9.90;;;;;;;9.50;nan;100062.50;4987887;28;20214;-82
2022/10/09 04:16:16;;;;;;;22.13;8.67;;;;;;;9.50;nan;100060.75;4987344;28;20187;-81
2022/10/09 04:18:43;;;;;;;17.37;10.37;;;;;;;9.49;nan;100063.44;4991199;28;20212;-81
2022/10/09 04:21:08;;;;;;;12.88;10.02;;;;;;;9.46;nan;100063.59;4990640;28;20187;-81
2022/10/09 04:23:33;;;;;;;26.70;9.63;;;;;;;9.41;nan;100055.13;4989328;28;20186;-81
2022/10/09 04:25:59;;;;;;;20.33;10.90;;;;;;;9.35;nan;100051.03;4982802;28;20195;-82
2022/10/09 04:28:26;;;;;;;16.03;10.23;;;;;;;9.29;nan;100049.59;4988606;28;20623;-82
2022/10/09 04:30:51;;;;;;;12.90;8.85;;;;;;;9.27;nan;100053.22;4998659;28;20203;-80
2022/10/09 04:33:17;;;;;;;14.80;9.20;;;;;;;9.27;nan;100053.22;4985125;28;20187;-79
2022/10/09 04:35:44;;;;;;;15.95;10.88;;;;;;;9.28;nan;100050.50;4988565;28;20231;-80
2022/10/09 04:38:10;;;;;;;22.55;10.95;;;;;;;9.34;nan;100045.88;4986292;28;20179;-79
2022/10/09 04:40:36;;;;;;;47.65;11.95;;;;;;;9.37;nan;100051.81;4992417;28;20398;-79
2022/10/09 04:43:02;;;;;;;31.50;12.80;;;;;;;9.35;nan;100056.28;4985138;28;20192;-79
2022/10/09 04:45:27;;;;;;;17.23;11.20;;;;;;;9.30;nan;100050.44;4987781;28;20447;-80
2022/10/09 04:47:53;;;;;;;30.60;12.27;;;;;;;9.27;nan;100054.06;4995933;28;20339;-79
2022/10/09 04:50:18;;;;;;;44.33;11.50;;;;;;;9.26;nan;100044.50;4993691;28;20635;-80
2022/10/09 04:52:56;;;;;;;13.40;10.00;;;;;;;9.27;nan;100037.47;4993634;28;20244;-80
2022/10/09 04:55:21;;;;;;;37.43;11.57;;;;;;;9.27;nan;100034.88;4987398;28;20859;-79
2022/10/09 04:57:47;;;;;;;15.27;9.70;;;;;;;9.22;nan;100032.47;4993487;28;20179;-81
2022/10/09 05:00:14;;;;;;;66.25;12.93;;;;;;;9.20;nan;100043.97;4990163;28;20277;-80
2022/10/09 05:02:40;;;;;;;14.80;8.87;;;;;;;9.17;nan;100041.50;4990953;28;20175;-79
2022/10/09 05:05:05;;;;;;;27.10;11.43;;;;;;;9.19;nan;100031.78;4988788;28;20207;-79
2022/10/09 05:07:33;;;;;;;64.30;14.30;;;;;;;9.20;nan;100036.09;4987577;28;20216;-78
2022/10/09 05:09:59;;;;;;;29.60;11.13;;;;;;;9.20;nan;100042.19;4992098;28;20218;-79
2022/10/09 05:12:24;;;;;;;39.23;11.13;;;;;;;9.24;nan;100037.66;4992017;28;20184;-79
2022/10/09 05:14:49;;;;;;;40.67;11.10;;;;;;;9.27;nan;100045.34;4990614;28;20202;-79
2022/10/09 05:17:15;;;;;;;31.40;12.30;;;;;;;9.24;nan;100050.75;4988078;28;20188;-79
2022/10/09 05:19:41;;;;;;;27.30;11.37;;;;;;;9.23;nan;100044.63;4990622;28;20216;-79
2022/10/09 05:22:06;;;;;;;15.10;10.63;;;;;;;9.24;nan;100050.75;4987203;28;20196;-79
2022/10/09 05:24:32;;;;;;;88.57;18.80;;;;;;;9.26;nan;100044.50;4997131;28;20188;-79
2022/10/09 05:26:57;;;;;;;15.53;9.13;;;;;;;9.28;nan;100044.41;4989972;28;20208;-79
2022/10/09 05:29:22;;;;;;;51.87;11.70;;;;;;;9.30;nan;100040.78;4996510;28;20258;-79
2022/10/09 05:31:48;;;;;;;23.80;11.00;;;;;;;9.29;nan;100043.50;4993542;28;20196;-79
2022/10/09 05:34:13;;;;;;;21.00;9.93;;;;;;;9.30;nan;100039.94;4994132;28;20246;-79
2022/10/09 05:36:39;;;;;;;19.27;9.63;;;;;;;9.32;nan;100043.34;4991718;28;20648;-78
2022/10/09 05:39:07;;;;;;;34.17;13.47;;;;;;;9.29;nan;100048.75;4997575;28;20813;-79
2022/10/09 05:41:32;;;;;;;58.72;14.65;;;;;;;9.27;nan;100047.97;4989484;28;20254;-79
2022/10/09 05:44:02;;;;;;;75.17;17.30;;;;;;;9.22;nan;100055.22;4989015;28;20200;-79
2022/10/09 05:46:29;;;;;;;29.00;12.75;;;;;;;9.22;nan;100044.72;4987019;28;20219;-79
2022/10/09 05:48:57;;;;;;;61.63;16.27;;;;;;;9.13;nan;100059.16;4991230;28;20203;-79
2022/10/09 05:51:30;;;;;;;44.40;15.77;;;;;;;9.06;nan;100050.75;5002229;28;20547;-79
2022/10/09 05:53:56;;;;;;;51.78;15.38;;;;;;;9.09;nan;100055.81;4989306;28;20191;-78
2022/10/09 05:56:27;;;;;;;19.48;10.80;;;;;;;9.11;nan;100054.91;4998127;28;20194;-79
2022/10/09 05:58:55;;;;;;;63.10;14.15;;;;;;;9.14;nan;100047.75;4997855;28;20610;-79
2022/10/09 06:01:23;;;;;;;32.30;15.35;;;;;;;9.16;nan;100053.75;4997934;28;20183;-78
2022/10/09 06:03:50;;;;;;;21.55;11.70;;;;;;;9.20;nan;100055.28;4997507;28;20188;-78
2022/10/09 06:06:17;;;;;;;41.65;11.93;;;;;;;9.27;nan;100055.84;4991483;28;20253;-78
2022/10/09 06:08:43;;;;;;;49.10;14.57;;;;;;;9.28;nan;100052.28;4995399;28;20218;-78
2022/10/09 06:11:14;;;;;;;22.53;10.40;;;;;;;9.28;nan;100053.13;4996819;28;20192;-78
2022/10/09 06:13:40;;;;;;;21.17;10.15;;;;;;;9.30;nan;100056.50;4993072;28;20436;-78
2022/10/09 06:16:06;;;;;;;40.30;13.05;;;;;;;9.31;nan;100049.50;4990107;28;20187;-78
2022/10/09 06:18:45;;;;;;;23.20;11.53;;;;;;;9.32;nan;100061.69;4994980;28;20214;-78
2022/10/09 06:21:13;;;;;;;39.08;13.30;;;;;;;9.36;nan;100065.00;4993391;28;20739;-78
2022/10/09 06:23:39;;;;;;;28.85;13.43;;;;;;;9.26;nan;100060.22;4992038;28;20199;-78
2022/10/09 06:26:08;;;;;;;28.27;13.13;;;;;;;9.25;nan;100057.69;4995595;28;20204;-79
2022/10/09 06:28:37;;;;;;;70.53;18.33;;;;;;;9.12;nan;100067.09;5002483;28;21062;-79
2022/10/09 06:31:05;;;;;;;34.53;11.60;;;;;;;9.11;nan;100060.16;4999715;28;20222;-79
2022/10/09 06:33:35;;;;;;;51.22;12.15;;;;;;;9.09;nan;100062.84;4999187;28;20286;-79
2022/10/09 06:36:04;;;;;;;46.00;12.60;;;;;;;9.11;nan;100062.78;5000306;28;20188;-79
2022/10/09 06:38:29;;;;;;;58.25;16.23;;;;;;;8.99;nan;100067.72;4996449;28;20198;-78
2022/10/09 06:41:00;;;;;;;38.00;14.83;;;;;;;9.02;nan;100079.81;4995830;28;20240;-79
2022/10/09 06:43:26;;;;;;;60.40;16.00;;;;;;;9.05;nan;100077.88;5002318;28;20503;-79
2022/10/09 06:45:51;;;;;;;35.90;14.60;;;;;;;9.08;nan;100075.09;5000926;28;20715;-79
2022/10/09 06:48:17;;;;;;;41.20;13.57;;;;;;;9.14;nan;100076.56;4996848;28;20247;-79
2022/10/09 06:50:42;;;;;;;36.80;13.80;;;;;;;9.21;nan;100071.88;5000892;28;20207;-79
2022/10/09 06:53:08;;;;;;;35.70;14.53;;;;;;;9.29;nan;100070.56;5002118;28;20187;-79
2022/10/09 06:55:33;;;;;;;24.33;13.10;;;;;;;9.39;nan;100070.06;5005659;28;20198;-79
2022/10/09 06:58:01;;;;;;;21.00;12.63;;;;;;;9.49;nan;100072.16;4993935;28;20212;-79
2022/10/09 07:00:29;;;;;;;19.95;12.20;;;;;;;9.59;nan;100076.94;5001764;28;20203;-79
2022/10/09 07:02:54;;;;;;;20.93;12.57;;;;;;;9.65;nan;100073.97;4995262;28;20184;-79
2022/10/09 07:05:20;;;;;;;17.20;11.33;;;;;;;9.71;nan;100084.16;4994650;28;20203;-79
2022/10/09 07:07:45;;;;;;;22.57;11.20;;;;;;;9.77;nan;100075.94;4998366;28;20250;-79
2022/10/09 07:10:11;;;;;;;16.87;11.50;;;;;;;9.80;nan;100078.41;4995628;28;20212;-79
2022/10/09 07:12:37;;;;;;;27.20;11.93;;;;;;;9.84;nan;100072.06;4994787;28;20205;-79
2022/10/09 07:15:05;;;;;;;37.63;12.70;;;;;;;9.89;nan;100071.84;4994303;28;20211;-79
2022/10/09 07:17:30;;;;;;;27.10;11.23;;;;;;;9.90;nan;100074.38;4990747;28;20195;-79
2022/10/09 07:19:56;;;;;;;17.70;9.70;;;;;;;9.93;nan;100074.19;4995310;28;20236;-79
2022/10/09 07:22:21;;;;;;;13.63;10.60;;;;;;;9.97;nan;100075.75;4998160;28;20774;-79
2022/10/09 07:24:49;;;;;;;19.30;10.70;;;;;;;10.02;nan;100083.38;4996816;28;20215;-79
2022/10/09 07:27:14;;;;;;;18.58;10.50;;;;;;;10.07;nan;100083.09;4997467;28;20243;-79
2022/10/09 07:29:39;;;;;;;21.40;10.40;;;;;;;10.08;nan;100082.19;4996261;28;20223;-79
2022/10/09 07:32:14;;;;;;;14.13;9.43;;;;;;;10.08;nan;100077.78;4994477;28;20199;-79
2022/10/09 07:34:40;;;;;;;10.98;8.45;;;;;;;10.10;nan;100082.94;4995264;28;20210;-79
2022/10/09 07:37:06;;;;;;;19.20;10.60;;;;;;;10.13;nan;100075.78;4992490;28;20370;-79
2022/10/09 07:39:31;;;;;;;14.93;8.97;;;;;;;10.20;nan;100081.50;4990694;28;20211;-79
2022/10/09 07:41:57;;;;;;;12.30;8.80;;;;;;;10.24;nan;100077.81;4991250;28;20293;-79
2022/10/09 07:44:22;;;;;;;12.37;9.63;;;;;;;10.28;nan;100074.09;4999629;28;20192;-79
2022/10/09 07:46:51;;;;;;;20.63;8.80;;;;;;;10.30;nan;100064.38;4997990;28;20202;-79
2022/10/09 07:49:17;;;;;;;15.50;10.55;;;;;;;10.32;nan;100072.19;4992274;28;20227;-79
2022/10/09 07:51:42;;;;;;;9.97;7.63;;;;;;;10.34;nan;100075.53;4998378;28;20187;-79
2022/10/09 07:54:07;;;;;;;13.93;8.50;;;;;;;10.37;nan;100072.78;5002680;28;20274;-79
2022/10/09 07:56:36;;;;;;;12.17;8.87;;;;;;;10.41;nan;100072.50;5001592;28;20191;-79
2022/10/09 07:59:07;;;;;;;11.43;8.10;;;;;;;10.46;nan;100068.78;4997464;28;20369;-79
2022/10/09 08:01:34;;;;;;;13.02;8.85;;;;;;;10.50;nan;100070.28;4998173;28;20278;-79
2022/10/09 08:04:00;;;;;;;12.70;7.85;;;;;;;10.56;nan;100080.47;4996903;28;20203;-79
2022/10/09 08:06:26;;;;;;;10.07;8.55;;;;;;;10.60;nan;100074.94;5002757;28;21137;-80
2022/10/09 08:08:55;;;;;;;10.23;8.32;;;;;;;10.64;nan;100073.00;5002981;28;20254;-79
2022/10/09 08:11:22;;;;;;;11.50;9.25;;;;;;;10.67;nan;100078.09;4997426;28;20540;-79
2022/10/09 08:13:48;;;;;;;13.75;7.57;;;;;;;10.72;nan;100069.91;4996473;28;20294;-79
2022/10/09 08:16:15;;;;;;;9.43;6.85;;;;;;;10.72;nan;100073.41;5000772;28;20194;-80
2022/10/09 08:18:40;;;;;;;37.33;9.43;;;;;;;10.73;nan;100071.63;4998041;28;20207;-80
2022/10/09 08:21:09;;;;;;;21.23;7.87;;;;;;;10.66;nan;100068.50;4997853;28;20552;-80
2022/10/09 08:23:35;;;;;;;12.98;8.43;;;;;;;10.64;nan;100070.38;4996891;28;20200;-80
2022/10/09 08:26:01;;;;;;;13.83;8.27;;;;;;;10.65;nan;100072.06;4991888;28;20202;-80
2022/10/09 08:28:27;;;;;;;11.45;9.07;;;;;;;10.68;nan;100063.16;4995008;28;20598;-80
2022/10/09 08:30:52;;;;;;;16.90;9.03;;;;;;;10.72;nan;100048.91;4999513;28;20188;-80
2022/10/09 08:33:20;;;;;;;10.10;7.57;;;;;;;10.72;nan;100057.66;4994420;28;20291;-80
2022/10/09 08:35:48;;;;;;;10.90;7.50;;;;;;;10.74;nan;100063.66;4991889;28;20224;-81
2022/10/09 08:38:13;;;;;;;8.98;6.80;;;;;;;10.74;nan;100061.00;4992714;28;20188;-80
2022/10/09 08:40:48;;;;;;;12.83;7.33;;;;;;;10.76;nan;100056.53;4993938;28;20187;-80
2022/10/09 08:43:18;;;;;;;23.33;10.15;;;;;;;10.76;nan;100067.03;4991000;28;20429;-80
2022/10/09 08:45:46;;;;;;;13.05;7.88;;;;;;;10.78;nan;100064.34;4992845;28;20270;-80
2022/10/09 08:48:18;;;;;;;11.85;8.70;;;;;;;10.82;nan;100056.16;4994827;28;20269;-80
2022/10/09 08:50:52;;;;;;;14.77;10.65;;;;;;;10.88;nan;100067.25;4990902;28;20200;-81
2022/10/09 08:53:41;;;;;;;14.38;8.90;;;;;;;10.88;nan;100062.84;4997363;28;20187;-80
2022/10/09 08:56:12;;;;;;;11.90;8.48;;;;;;;10.92;nan;100063.53;4995307;28;20204;-80
2022/10/09 08:58:39;;;;;;;13.80;9.00;;;;;;;10.99;nan;100068.38;4994960;28;20639;-80
2022/10/09 09:01:36;;;;;;;11.50;9.15;;;;;;;11.05;nan;100059.28;4996373;28;20183;-80
2022/10/09 09:04:27;;;;;;;12.50;9.77;;;;;;;11.12;nan;100055.31;4996990;28;20195;-80
2022/10/09 09:07:09;;;;;;;15.45;10.70;;;;;;;11.18;nan;100043.59;4993538;28;20261;-80
2022/10/09 09:09:51;;;;;;;12.48;10.02;;;;;;;11.23;nan;100041.53;4990975;28;20275;-80
2022/10/09 09:12:39;;;;;;;12.43;9.25;;;;;;;11.30;nan;100048.16;4992978;28;20215;-80
2022/10/09 09:15:14;;;;;;;12.63;9.02;;;;;;;11.30;nan;100048.16;4987878;28;20294;-77
2022/10/09 09:17:55;;;;;;;12.23;9.50;;;;;;;11.24;nan;100043.25;4988853;28;20269;-78
2022/10/09 09:20:45;;;;;;;11.35;10.15;;;;;;;11.27;nan;100043.91;4987729;28;20223;-78
2022/10/09 09:23:14;;;;;;;19.20;11.20;;;;;;;11.32;nan;100034.91;4992990;28;20175;-80
2022/10/09 09:25:41;;;;;;;15.90;10.20;;;;;;;11.35;nan;100037.34;4998996;28;20721;-80
2022/10/09 09:28:32;;;;;;;18.15;9.65;;;;;;;11.39;nan;100018.66;4997845;28;20314;-78
2022/10/09 09:31:03;;;;;;;13.73;9.80;;;;;;;11.45;nan;100034.09;4989538;28;20828;-78
2022/10/09 09:33:55;;;;;;;14.07;10.85;;;;;;;11.51;nan;100030.22;4986587;28;21004;-78
2022/10/09 09:36:37;;;;;;;13.73;9.95;;;;;;;11.53;nan;100025.72;4991544;28;20960;-78
2022/10/09 09:39:02;;;;;;;15.55;10.77;;;;;;;11.53;nan;100017.84;4989645;28;20235;-78
2022/10/09 09:41:28;;;;;;;13.93;11.40;;;;;;;11.57;nan;100019.31;4986206;28;20183;-78
2022/10/09 09:43:53;;;;;;;12.33;9.57;;;;;;;11.63;nan;100015.47;4988078;28;20763;-78
2022/10/09 09:46:24;;;;;;;13.67;10.30;;;;;;;11.69;nan;100005.44;4989193;28;20194;-79
2022/10/09 09:48:50;;;;;;;15.98;10.82;;;;;;;11.72;nan;100007.88;4992214;28;20218;-78
2022/10/09 09:51:18;;;;;;;14.27;11.03;;;;;;;11.73;nan;100009.53;4986649;28;20196;-80
2022/10/09 09:53:48;;;;;;;13.40;10.40;;;;;;;11.79;nan;100004.84;4990119;28;20250;-81
2022/10/09 09:56:14;;;;;;;13.23;9.48;;;;;;;11.82;nan;100000.22;4992538;28;20611;-79
2022/10/09 09:58:49;;;;;;;15.73;12.30;;;;;;;11.87;nan;100002.63;4998259;28;20203;-78
2022/10/09 10:01:23;;;;;;;17.42;11.27;;;;;;;11.93;nan;100008.31;4989130;28;20183;-78
2022/10/09 10:03:52;;;;;;;17.23;11.68;;;;;;;11.97;nan;99995.84;4985908;28;20449;-78
2022/10/09 10:06:27;;;;;;;15.55;10.77;;;;;;;12.03;nan;100003.34;4985949;28;20195;-78
2022/10/09 10:09:11;;;;;;;15.90;10.70;;;;;;;12.12;nan;100000.13;4991792;28;20269;-78
2022/10/09 10:11:43;;;;;;;14.15;10.05;;;;;;;12.23;nan;99988.03;4988128;28;20188;-78
2022/10/09 10:14:13;;;;;;;18.45;12.20;;;;;;;12.33;nan;99994.41;4989446;28;21013;-78
2022/10/09 10:16:39;;;;;;;16.17;11.05;;;;;;;12.35;nan;99982.00;4997642;28;20565;-78
2022/10/09 10:19:05;;;;;;;13.20;11.03;;;;;;;12.33;nan;99986.50;4989605;28;20278;-78
2022/10/09 10:21:47;;;;;;;16.15;10.55;;;;;;;12.32;nan;99988.31;4998351;28;20430;-78
2022/10/09 10:24:19;;;;;;;15.30;10.57;;;;;;;12.35;nan;99992.53;4992915;28;20602;-78
2022/10/09 10:26:48;;;;;;;13.18;8.82;;;;;;;12.40;nan;99979.91;4996349;28;20313;-78
2022/10/09 10:29:16;;;;;;;17.90;10.48;;;;;;;12.49;nan;99974.03;5003813;28;20231;-78
2022/10/09 10:32:03;;;;;;;14.55;10.30;;;;;;;12.59;nan;99977.75;4997019;28;20207;-80
2022/10/09 10:34:34;;;;;;;12.80;9.45;;;;;;;12.65;nan;99981.78;4992117;28;20352;-80
2022/10/09 10:37:09;;;;;;;16.13;11.27;;;;;;;12.70;nan;99981.47;4990472;28;20652;-80
2022/10/09 10:39:41;;;;;;;12.88;10.27;;;;;;;12.74;nan;99967.13;4990467;28;20780;-82
2022/10/09 10:42:13;;;;;;;11.95;9.15;;;;;;;12.80;nan;99970.22;4991554;28;20180;-80
2022/10/09 10:44:55;;;;;;;12.80;8.70;;;;;;;12.89;nan;99965.28;4992376;28;20283;-80
2022/10/09 10:47:25;;;;;;;13.10;10.25;;;;;;;12.95;nan;99960.41;4994341;28;20215;-80
2022/10/09 10:49:52;;;;;;;11.30;9.35;;;;;;;13.03;nan;99963.38;4991483;28;20220;-80
2022/10/09 10:52:39;;;;;;;10.38;9.32;;;;;;;13.14;nan;99965.28;4985166;28;20262;-80
2022/10/09 10:55:32;;;;;;;11.30;8.38;;;;;;;13.22;nan;99962.94;4996502;28;20198;-80
2022/10/09 10:58:05;;;;;;;10.65;8.50;;;;;;;13.32;nan;99960.56;4985094;28;20184;-80
2022/10/09 11:00:37;;;;;;;10.25;7.65;;;;;;;13.41;nan;99954.63;4991552;28;20594;-80
2022/10/09 11:03:27;;;;;;;11.30;7.25;;;;;;;13.56;nan;99954.53;4990208;28;20271;-80
2022/10/09 11:06:17;;;;;;;10.40;8.60;;;;;;;13.64;nan;99950.41;4990034;28;20539;-80
2022/10/09 11:08:42;;;;;;;9.23;7.20;;;;;;;13.74;nan;99950.56;4991984;28;20235;-80
2022/10/09 11:11:17;;;;;;;11.27;7.63;;;;;;;13.86;nan;99947.06;4985812;28;20196;-80
2022/10/09 11:13:52;;;;;;;9.00;8.07;;;;;;;14.00;nan;99945.22;4987869;28;20194;-80
2022/10/09 11:16:23;;;;;;;8.48;7.40;;;;;;;14.06;nan;99937.69;4989330;28;20923;-80
2022/10/09 11:18:58;;;;;;;11.38;8.57;;;;;;;14.05;nan;99941.28;4993730;28;20207;-80
2022/10/09 11:21:40;;;;;;;12.40;8.55;;;;;;;14.10;nan;99928.59;4989169;28;20253;-80
2022/10/09 11:24:35;;;;;;;8.55;6.78;;;;;;;14.20;nan;99928.75;4992649;28;20195;-80
2022/10/09 11:27:08;;;;;;;8.02;6.95;;;;;;;14.32;nan;99919.09;4984541;28;20290;-80
2022/10/09 11:29:41;;;;;;;8.77;6.82;;;;;;;14.44;nan;99912.88;4990075;28;20237;-80
2022/10/09 11:32:30;;;;;;;11.45;7.10;;;;;;;14.49;nan;99909.91;4990343;28;20193;-79
2022/10/09 11:35:12;;;;;;;8.38;7.47;;;;;;;14.53;nan;99901.66;4990563;28;20199;-80
2022/10/09 11:37:41;;;;;;;9.63;7.63;;;;;;;14.56;nan;99906.72;4987619;28;20816;-80
2022/10/09 11:40:17;;;;;;;11.88;8.52;;;;;;;14.58;nan;99902.16;4986932;28;20218;-80
2022/10/09 11:42:51;;;;;;;12.80;7.43;;;;;;;14.60;nan;99896.72;4983917;28;20271;-80
2022/10/09 11:45:39;;;;;;;9.93;7.25;;;;;;;14.64;nan;99890.28;4984959;28;20536;-80
2022/10/09 11:48:20;;;;;;;9.38;7.53;;;;;;;14.67;nan;99883.91;4988679;28;20226;-80
2022/10/09 11:50:57;;;;;;;8.45;6.68;;;;;;;14.62;nan;99884.25;4993975;28;20206;-80
2022/10/09 11:53:25;;;;;;;9.70;6.90;;;;;;;14.65;nan;99876.09;4989801;28;20207;-80